sensor_id;sensor_type;location;lat;lon;timestamp;P1;durP1;ratioP1;P2;durP2;ratioP2
79023;SDS011;70306;44.764;37.688;2023-08-12T00:00:25;21.17;;;5.88;;
79023;SDS011;70306;44.764;37.688;2023-08-12T00:01:27;18.75;;;5.38;;
79023;SDS011;70306;44.764;37.688;2023-08-12T00:02:29;26.23;;;5.68;;
79023;SDS011;70306;44.764;37.688;2023-08-12T00:03:40;58.92;;;8.10;;
79023;SDS011;70306;44.764;37.688;2023-08-12T00:04:43;28.02;;;5.72;;
79023;SDS011;70306;44.764;37.688;2023-08-12T00:05:46;13.40;;;5.88;;
79023;SDS011;70306;44.764;37.688;2023-08-12T00:06:48;14.27;;;5.25;;
79023;SDS011;70306;44.764;37.688;2023-08-12T00:07:50;20.55;;;6.03;;
79023;SDS011;70306;44.764;37.688;2023-08-12T00:08:52;24.48;;;5.93;;
79023;SDS011;70306;44.764;37.688;2023-08-12T00:09:53;11.00;;;4.95;;
79023;SDS011;70306;44.764;37.688;2023-08-12T00:10:57;9.00;;;5.68;;
79023;SDS011;70306;44.764;37.688;2023-08-12T00:11:59;10.18;;;5.15;;
79023;SDS011;70306;44.764;37.688;2023-08-12T00:13:00;9.90;;;5.05;;
79023;SDS011;70306;44.764;37.688;2023-08-12T00:14:02;14.43;;;5.78;;
79023;SDS011;70306;44.764;37.688;2023-08-12T00:15:04;21.70;;;6.10;;
79023;SDS011;70306;44.764;37.688;2023-08-12T00:16:08;15.60;;;5.63;;
79023;SDS011;70306;44.764;37.688;2023-08-12T00:17:10;17.27;;;6.32;;
79023;SDS011;70306;44.764;37.688;2023-08-12T00:18:11;9.52;;;5.70;;
79023;SDS011;70306;44.764;37.688;2023-08-12T00:19:13;12.43;;;5.40;;
79023;SDS011;70306;44.764;37.688;2023-08-12T00:20:15;27.13;;;6.47;;
79023;SDS011;70306;44.764;37.688;2023-08-12T00:21:18;24.60;;;6.95;;
79023;SDS011;70306;44.764;37.688;2023-08-12T00:22:19;28.38;;;7.00;;
79023;SDS011;70306;44.764;37.688;2023-08-12T00:23:23;14.20;;;5.88;;
79023;SDS011;70306;44.764;37.688;2023-08-12T00:24:25;12.95;;;5.07;;
79023;SDS011;70306;44.764;37.688;2023-08-12T00:25:27;8.80;;;5.28;;
79023;SDS011;70306;44.764;37.688;2023-08-12T00:26:29;11.30;;;5.35;;
79023;SDS011;70306;44.764;37.688;2023-08-12T00:27:37;32.40;;;6.28;;
79023;SDS011;70306;44.764;37.688;2023-08-12T00:28:40;20.90;;;6.55;;
79023;SDS011;70306;44.764;37.688;2023-08-12T00:29:41;14.68;;;6.53;;
79023;SDS011;70306;44.764;37.688;2023-08-12T00:30:43;15.23;;;6.38;;
79023;SDS011;70306;44.764;37.688;2023-08-12T00:31:48;19.35;;;6.50;;
79023;SDS011;70306;44.764;37.688;2023-08-12T00:32:50;11.55;;;6.47;;
79023;SDS011;70306;44.764;37.688;2023-08-12T00:33:52;29.17;;;6.90;;
79023;SDS011;70306;44.764;37.688;2023-08-12T00:34:53;71.03;;;10.30;;
79023;SDS011;70306;44.764;37.688;2023-08-12T00:35:55;23.83;;;6.90;;
79023;SDS011;70306;44.764;37.688;2023-08-12T00:36:58;13.18;;;6.28;;
79023;SDS011;70306;44.764;37.688;2023-08-12T00:38:00;16.13;;;6.55;;
79023;SDS011;70306;44.764;37.688;2023-08-12T00:39:02;9.40;;;6.30;;
79023;SDS011;70306;44.764;37.688;2023-08-12T00:40:05;11.32;;;5.55;;
79023;SDS011;70306;44.764;37.688;2023-08-12T00:41:07;11.88;;;5.30;;
79023;SDS011;70306;44.764;37.688;2023-08-12T00:42:09;12.05;;;5.88;;
79023;SDS011;70306;44.764;37.688;2023-08-12T00:43:12;9.52;;;6.60;;
79023;SDS011;70306;44.764;37.688;2023-08-12T00:44:14;10.95;;;6.57;;
79023;SDS011;70306;44.764;37.688;2023-08-12T00:45:16;18.88;;;6.47;;
79023;SDS011;70306;44.764;37.688;2023-08-12T00:46:18;15.20;;;7.28;;
79023;SDS011;70306;44.764;37.688;2023-08-12T00:47:20;11.65;;;6.90;;
79023;SDS011;70306;44.764;37.688;2023-08-12T00:48:22;28.42;;;6.57;;
79023;SDS011;70306;44.764;37.688;2023-08-12T00:49:27;10.13;;;6.45;;
79023;SDS011;70306;44.764;37.688;2023-08-12T00:50:29;16.48;;;6.57;;
79023;SDS011;70306;44.764;37.688;2023-08-12T00:51:31;14.60;;;7.00;;
79023;SDS011;70306;44.764;37.688;2023-08-12T00:52:33;33.42;;;7.00;;
79023;SDS011;70306;44.764;37.688;2023-08-12T00:53:35;17.35;;;5.70;;
79023;SDS011;70306;44.764;37.688;2023-08-12T00:54:40;10.68;;;6.32;;
79023;SDS011;70306;44.764;37.688;2023-08-12T00:55:42;8.07;;;5.85;;
79023;SDS011;70306;44.764;37.688;2023-08-12T00:56:43;9.57;;;6.65;;
79023;SDS011;70306;44.764;37.688;2023-08-12T00:57:46;10.18;;;5.70;;
79023;SDS011;70306;44.764;37.688;2023-08-12T00:58:48;11.93;;;5.85;;
79023;SDS011;70306;44.764;37.688;2023-08-12T00:59:50;9.82;;;6.53;;
79023;SDS011;70306;44.764;37.688;2023-08-12T01:00:52;7.68;;;5.68;;
79023;SDS011;70306;44.764;37.688;2023-08-12T01:01:54;22.48;;;6.63;;
79023;SDS011;70306;44.764;37.688;2023-08-12T01:02:56;19.23;;;6.50;;
79023;SDS011;70306;44.764;37.688;2023-08-12T01:03:58;19.50;;;7.28;;
79023;SDS011;70306;44.764;37.688;2023-08-12T01:04:59;10.93;;;6.28;;
79023;SDS011;70306;44.764;37.688;2023-08-12T01:06:01;7.55;;;5.95;;
79023;SDS011;70306;44.764;37.688;2023-08-12T01:07:03;9.50;;;6.40;;
79023;SDS011;70306;44.764;37.688;2023-08-12T01:08:06;9.98;;;5.93;;
79023;SDS011;70306;44.764;37.688;2023-08-12T01:09:08;20.60;;;6.50;;
79023;SDS011;70306;44.764;37.688;2023-08-12T01:10:10;26.83;;;7.90;;
79023;SDS011;70306;44.764;37.688;2023-08-12T01:12:52;16.88;;;6.85;;
79023;SDS011;70306;44.764;37.688;2023-08-12T01:15:08;11.73;;;5.60;;
79023;SDS011;70306;44.764;37.688;2023-08-12T01:16:15;18.15;;;7.43;;
79023;SDS011;70306;44.764;37.688;2023-08-12T01:17:20;30.05;;;7.82;;
79023;SDS011;70306;44.764;37.688;2023-08-12T01:18:23;33.25;;;7.03;;
79023;SDS011;70306;44.764;37.688;2023-08-12T01:19:30;15.15;;;7.60;;
79023;SDS011;70306;44.764;37.688;2023-08-12T01:20:33;13.48;;;6.95;;
79023;SDS011;70306;44.764;37.688;2023-08-12T01:21:36;36.95;;;8.32;;
79023;SDS011;70306;44.764;37.688;2023-08-12T01:23:12;12.77;;;6.97;;
79023;SDS011;70306;44.764;37.688;2023-08-12T01:24:15;23.75;;;8.55;;
79023;SDS011;70306;44.764;37.688;2023-08-12T01:25:16;13.45;;;8.20;;
79023;SDS011;70306;44.764;37.688;2023-08-12T01:26:19;18.17;;;7.07;;
79023;SDS011;70306;44.764;37.688;2023-08-12T01:27:20;24.35;;;7.82;;
79023;SDS011;70306;44.764;37.688;2023-08-12T01:28:22;16.40;;;8.38;;
79023;SDS011;70306;44.764;37.688;2023-08-12T01:29:25;14.90;;;8.60;;
79023;SDS011;70306;44.764;37.688;2023-08-12T01:30:26;17.27;;;9.65;;
79023;SDS011;70306;44.764;37.688;2023-08-12T01:31:38;12.90;;;9.32;;
79023;SDS011;70306;44.764;37.688;2023-08-12T01:33:58;21.80;;;10.43;;
79023;SDS011;70306;44.764;37.688;2023-08-12T01:35:24;21.63;;;9.18;;
79023;SDS011;70306;44.764;37.688;2023-08-12T01:36:31;36.85;;;11.25;;
79023;SDS011;70306;44.764;37.688;2023-08-12T01:37:36;14.25;;;9.30;;
79023;SDS011;70306;44.764;37.688;2023-08-12T01:38:39;25.35;;;10.63;;
79023;SDS011;70306;44.764;37.688;2023-08-12T01:39:44;27.00;;;9.95;;
79023;SDS011;70306;44.764;37.688;2023-08-12T01:40:48;13.48;;;9.68;;
79023;SDS011;70306;44.764;37.688;2023-08-12T01:41:50;22.33;;;10.57;;
79023;SDS011;70306;44.764;37.688;2023-08-12T01:42:53;13.35;;;9.98;;
79023;SDS011;70306;44.764;37.688;2023-08-12T01:43:55;21.25;;;11.23;;
79023;SDS011;70306;44.764;37.688;2023-08-12T01:44:57;21.30;;;10.70;;
79023;SDS011;70306;44.764;37.688;2023-08-12T01:45:59;18.13;;;10.95;;
79023;SDS011;70306;44.764;37.688;2023-08-12T01:47:01;12.50;;;10.20;;
79023;SDS011;70306;44.764;37.688;2023-08-12T01:48:04;16.27;;;11.43;;
79023;SDS011;70306;44.764;37.688;2023-08-12T01:49:06;19.10;;;12.02;;
79023;SDS011;70306;44.764;37.688;2023-08-12T01:50:08;20.50;;;11.63;;
79023;SDS011;70306;44.764;37.688;2023-08-12T01:51:11;22.52;;;11.43;;
79023;SDS011;70306;44.764;37.688;2023-08-12T01:52:13;19.17;;;10.80;;
79023;SDS011;70306;44.764;37.688;2023-08-12T01:53:14;20.15;;;12.00;;
79023;SDS011;70306;44.764;37.688;2023-08-12T01:54:16;16.83;;;10.13;;
79023;SDS011;70306;44.764;37.688;2023-08-12T01:55:18;13.90;;;10.20;;
79023;SDS011;70306;44.764;37.688;2023-08-12T01:56:20;25.63;;;11.57;;
79023;SDS011;70306;44.764;37.688;2023-08-12T01:57:22;27.10;;;10.82;;
79023;SDS011;70306;44.764;37.688;2023-08-12T01:58:24;20.38;;;10.75;;
79023;SDS011;70306;44.764;37.688;2023-08-12T01:59:27;17.60;;;9.73;;
79023;SDS011;70306;44.764;37.688;2023-08-12T02:00:29;22.35;;;11.50;;
79023;SDS011;70306;44.764;37.688;2023-08-12T02:01:30;21.88;;;11.80;;
79023;SDS011;70306;44.764;37.688;2023-08-12T02:02:32;32.65;;;12.23;;
79023;SDS011;70306;44.764;37.688;2023-08-12T02:03:35;41.05;;;11.82;;
79023;SDS011;70306;44.764;37.688;2023-08-12T02:04:38;18.38;;;11.65;;
79023;SDS011;70306;44.764;37.688;2023-08-12T02:05:41;20.63;;;11.07;;
79023;SDS011;70306;44.764;37.688;2023-08-12T02:06:43;29.35;;;12.02;;
79023;SDS011;70306;44.764;37.688;2023-08-12T02:07:44;17.55;;;11.20;;
79023;SDS011;70306;44.764;37.688;2023-08-12T02:08:46;26.30;;;12.23;;
79023;SDS011;70306;44.764;37.688;2023-08-12T02:09:48;36.17;;;12.60;;
79023;SDS011;70306;44.764;37.688;2023-08-12T02:10:49;23.40;;;13.35;;
79023;SDS011;70306;44.764;37.688;2023-08-12T02:11:51;21.17;;;11.95;;
79023;SDS011;70306;44.764;37.688;2023-08-12T02:12:53;22.33;;;12.07;;
79023;SDS011;70306;44.764;37.688;2023-08-12T02:13:55;21.73;;;12.65;;
79023;SDS011;70306;44.764;37.688;2023-08-12T02:14:57;23.98;;;11.85;;
79023;SDS011;70306;44.764;37.688;2023-08-12T02:15:58;35.15;;;13.43;;
79023;SDS011;70306;44.764;37.688;2023-08-12T02:17:00;79.18;;;15.75;;
79023;SDS011;70306;44.764;37.688;2023-08-12T02:18:02;26.83;;;11.98;;
79023;SDS011;70306;44.764;37.688;2023-08-12T02:19:04;21.75;;;12.98;;
79023;SDS011;70306;44.764;37.688;2023-08-12T02:20:06;58.70;;;14.05;;
79023;SDS011;70306;44.764;37.688;2023-08-12T02:21:09;119.30;;;18.13;;
79023;SDS011;70306;44.764;37.688;2023-08-12T02:22:31;15.43;;;12.18;;
79023;SDS011;70306;44.764;37.688;2023-08-12T02:23:33;22.83;;;12.85;;
79023;SDS011;70306;44.764;37.688;2023-08-12T02:24:35;41.15;;;15.85;;
79023;SDS011;70306;44.764;37.688;2023-08-12T02:25:36;25.88;;;12.88;;
79023;SDS011;70306;44.764;37.688;2023-08-12T02:26:41;29.45;;;13.55;;
79023;SDS011;70306;44.764;37.688;2023-08-12T02:27:43;17.67;;;12.88;;
79023;SDS011;70306;44.764;37.688;2023-08-12T02:28:44;31.27;;;14.55;;
79023;SDS011;70306;44.764;37.688;2023-08-12T02:29:46;42.67;;;16.80;;
79023;SDS011;70306;44.764;37.688;2023-08-12T02:30:48;48.85;;;14.25;;
79023;SDS011;70306;44.764;37.688;2023-08-12T02:31:50;59.80;;;15.32;;
79023;SDS011;70306;44.764;37.688;2023-08-12T02:32:56;26.42;;;13.45;;
79023;SDS011;70306;44.764;37.688;2023-08-12T02:33:59;36.38;;;13.95;;
79023;SDS011;70306;44.764;37.688;2023-08-12T02:35:00;55.22;;;15.70;;
79023;SDS011;70306;44.764;37.688;2023-08-12T02:36:02;43.30;;;14.48;;
79023;SDS011;70306;44.764;37.688;2023-08-12T02:37:04;25.42;;;12.45;;
79023;SDS011;70306;44.764;37.688;2023-08-12T02:38:05;50.72;;;14.38;;
79023;SDS011;70306;44.764;37.688;2023-08-12T02:39:07;55.88;;;14.63;;
79023;SDS011;70306;44.764;37.688;2023-08-12T02:40:16;35.70;;;14.18;;
79023;SDS011;70306;44.764;37.688;2023-08-12T02:41:22;44.30;;;15.50;;
79023;SDS011;70306;44.764;37.688;2023-08-12T02:42:24;32.83;;;12.57;;
79023;SDS011;70306;44.764;37.688;2023-08-12T02:43:25;46.88;;;14.60;;
79023;SDS011;70306;44.764;37.688;2023-08-12T02:44:28;49.33;;;14.48;;
79023;SDS011;70306;44.764;37.688;2023-08-12T02:45:30;62.33;;;16.15;;
79023;SDS011;70306;44.764;37.688;2023-08-12T02:46:32;59.50;;;14.45;;
79023;SDS011;70306;44.764;37.688;2023-08-12T02:47:33;28.23;;;13.30;;
79023;SDS011;70306;44.764;37.688;2023-08-12T02:48:35;43.42;;;14.20;;
79023;SDS011;70306;44.764;37.688;2023-08-12T02:49:38;63.10;;;15.40;;
79023;SDS011;70306;44.764;37.688;2023-08-12T02:50:40;68.63;;;17.65;;
79023;SDS011;70306;44.764;37.688;2023-08-12T02:51:41;31.27;;;12.50;;
79023;SDS011;70306;44.764;37.688;2023-08-12T02:52:43;45.33;;;13.75;;
79023;SDS011;70306;44.764;37.688;2023-08-12T02:53:45;14.93;;;11.48;;
79023;SDS011;70306;44.764;37.688;2023-08-12T02:54:47;17.85;;;11.68;;
79023;SDS011;70306;44.764;37.688;2023-08-12T02:55:49;89.47;;;16.50;;
79023;SDS011;70306;44.764;37.688;2023-08-12T02:56:51;35.60;;;12.93;;
79023;SDS011;70306;44.764;37.688;2023-08-12T02:57:55;33.30;;;12.00;;
79023;SDS011;70306;44.764;37.688;2023-08-12T02:58:57;34.95;;;12.20;;
79023;SDS011;70306;44.764;37.688;2023-08-12T02:59:59;28.88;;;11.80;;
79023;SDS011;70306;44.764;37.688;2023-08-12T03:01:01;41.03;;;12.80;;
79023;SDS011;70306;44.764;37.688;2023-08-12T03:02:05;42.65;;;13.55;;
79023;SDS011;70306;44.764;37.688;2023-08-12T03:03:06;72.82;;;14.00;;
79023;SDS011;70306;44.764;37.688;2023-08-12T03:04:08;18.88;;;11.32;;
79023;SDS011;70306;44.764;37.688;2023-08-12T03:05:10;18.58;;;12.25;;
79023;SDS011;70306;44.764;37.688;2023-08-12T03:06:11;24.50;;;12.60;;
79023;SDS011;70306;44.764;37.688;2023-08-12T03:07:13;18.67;;;10.95;;
79023;SDS011;70306;44.764;37.688;2023-08-12T03:08:15;19.73;;;10.60;;
79023;SDS011;70306;44.764;37.688;2023-08-12T03:09:18;41.00;;;14.18;;
79023;SDS011;70306;44.764;37.688;2023-08-12T03:10:21;37.90;;;12.30;;
79023;SDS011;70306;44.764;37.688;2023-08-12T03:11:22;22.27;;;10.93;;
79023;SDS011;70306;44.764;37.688;2023-08-12T03:12:24;17.05;;;10.52;;
79023;SDS011;70306;44.764;37.688;2023-08-12T03:13:26;21.35;;;12.52;;
79023;SDS011;70306;44.764;37.688;2023-08-12T03:14:49;28.13;;;11.65;;
79023;SDS011;70306;44.764;37.688;2023-08-12T03:15:51;13.68;;;11.15;;
79023;SDS011;70306;44.764;37.688;2023-08-12T03:16:53;31.58;;;11.85;;
79023;SDS011;70306;44.764;37.688;2023-08-12T03:17:55;15.57;;;11.02;;
79023;SDS011;70306;44.764;37.688;2023-08-12T03:18:58;25.80;;;11.23;;
79023;SDS011;70306;44.764;37.688;2023-08-12T03:19:59;23.05;;;11.70;;
79023;SDS011;70306;44.764;37.688;2023-08-12T03:21:07;38.45;;;13.77;;
79023;SDS011;70306;44.764;37.688;2023-08-12T03:22:09;35.17;;;13.18;;
79023;SDS011;70306;44.764;37.688;2023-08-12T03:23:14;15.27;;;10.63;;
79023;SDS011;70306;44.764;37.688;2023-08-12T03:24:38;18.10;;;11.82;;
79023;SDS011;70306;44.764;37.688;2023-08-12T03:25:40;17.10;;;11.23;;
79023;SDS011;70306;44.764;37.688;2023-08-12T03:26:42;21.00;;;12.20;;
79023;SDS011;70306;44.764;37.688;2023-08-12T03:27:44;31.92;;;12.50;;
79023;SDS011;70306;44.764;37.688;2023-08-12T03:28:46;16.98;;;12.50;;
79023;SDS011;70306;44.764;37.688;2023-08-12T03:29:51;23.67;;;11.70;;
79023;SDS011;70306;44.764;37.688;2023-08-12T03:30:53;15.20;;;11.38;;
79023;SDS011;70306;44.764;37.688;2023-08-12T03:31:58;18.48;;;10.98;;
79023;SDS011;70306;44.764;37.688;2023-08-12T03:33:00;17.88;;;11.77;;
79023;SDS011;70306;44.764;37.688;2023-08-12T03:34:05;15.50;;;10.75;;
79023;SDS011;70306;44.764;37.688;2023-08-12T03:35:08;15.93;;;11.68;;
79023;SDS011;70306;44.764;37.688;2023-08-12T03:36:10;13.18;;;11.20;;
79023;SDS011;70306;44.764;37.688;2023-08-12T03:37:12;15.50;;;11.18;;
79023;SDS011;70306;44.764;37.688;2023-08-12T03:38:13;15.00;;;11.55;;
79023;SDS011;70306;44.764;37.688;2023-08-12T03:39:16;17.25;;;12.57;;
79023;SDS011;70306;44.764;37.688;2023-08-12T03:40:17;15.35;;;10.90;;
79023;SDS011;70306;44.764;37.688;2023-08-12T03:41:19;17.25;;;12.07;;
79023;SDS011;70306;44.764;37.688;2023-08-12T03:42:21;14.25;;;10.93;;
79023;SDS011;70306;44.764;37.688;2023-08-12T03:43:24;13.48;;;10.07;;
79023;SDS011;70306;44.764;37.688;2023-08-12T03:44:25;17.92;;;11.20;;
79023;SDS011;70306;44.764;37.688;2023-08-12T03:45:28;15.10;;;11.73;;
79023;SDS011;70306;44.764;37.688;2023-08-12T03:46:30;15.18;;;10.75;;
79023;SDS011;70306;44.764;37.688;2023-08-12T03:47:32;15.43;;;11.55;;
79023;SDS011;70306;44.764;37.688;2023-08-12T03:48:34;12.95;;;10.90;;
79023;SDS011;70306;44.764;37.688;2023-08-12T03:49:37;20.83;;;11.40;;
79023;SDS011;70306;44.764;37.688;2023-08-12T03:50:39;23.95;;;11.57;;
79023;SDS011;70306;44.764;37.688;2023-08-12T03:51:42;46.00;;;13.45;;
79023;SDS011;70306;44.764;37.688;2023-08-12T03:52:44;14.40;;;11.43;;
79023;SDS011;70306;44.764;37.688;2023-08-12T03:53:46;27.67;;;11.95;;
79023;SDS011;70306;44.764;37.688;2023-08-12T03:54:48;32.25;;;12.43;;
79023;SDS011;70306;44.764;37.688;2023-08-12T03:55:52;16.35;;;12.15;;
79023;SDS011;70306;44.764;37.688;2023-08-12T03:56:54;13.25;;;10.75;;
79023;SDS011;70306;44.764;37.688;2023-08-12T03:57:58;18.20;;;11.73;;
79023;SDS011;70306;44.764;37.688;2023-08-12T03:59:00;24.60;;;12.90;;
79023;SDS011;70306;44.764;37.688;2023-08-12T04:00:02;19.88;;;11.55;;
79023;SDS011;70306;44.764;37.688;2023-08-12T04:01:15;17.77;;;11.55;;
79023;SDS011;70306;44.764;37.688;2023-08-12T04:02:17;15.50;;;11.57;;
79023;SDS011;70306;44.764;37.688;2023-08-12T04:03:19;34.08;;;11.70;;
79023;SDS011;70306;44.764;37.688;2023-08-12T04:04:21;15.20;;;11.63;;
79023;SDS011;70306;44.764;37.688;2023-08-12T04:05:22;15.95;;;11.85;;
79023;SDS011;70306;44.764;37.688;2023-08-12T04:06:24;16.92;;;11.48;;
79023;SDS011;70306;44.764;37.688;2023-08-12T04:07:26;24.90;;;12.50;;
79023;SDS011;70306;44.764;37.688;2023-08-12T04:08:28;13.18;;;11.63;;
79023;SDS011;70306;44.764;37.688;2023-08-12T04:09:29;21.90;;;12.80;;
79023;SDS011;70306;44.764;37.688;2023-08-12T04:10:31;18.65;;;12.18;;
79023;SDS011;70306;44.764;37.688;2023-08-12T04:11:33;26.15;;;13.45;;
79023;SDS011;70306;44.764;37.688;2023-08-12T04:12:34;20.23;;;11.55;;
79023;SDS011;70306;44.764;37.688;2023-08-12T04:13:36;47.85;;;13.55;;
79023;SDS011;70306;44.764;37.688;2023-08-12T04:14:37;20.20;;;12.32;;
79023;SDS011;70306;44.764;37.688;2023-08-12T04:15:41;15.85;;;11.88;;
79023;SDS011;70306;44.764;37.688;2023-08-12T04:16:44;24.67;;;12.57;;
79023;SDS011;70306;44.764;37.688;2023-08-12T04:17:45;17.75;;;12.15;;
79023;SDS011;70306;44.764;37.688;2023-08-12T04:18:47;44.63;;;15.43;;
79023;SDS011;70306;44.764;37.688;2023-08-12T04:19:49;14.88;;;11.75;;
79023;SDS011;70306;44.764;37.688;2023-08-12T04:20:52;17.27;;;11.80;;
79023;SDS011;70306;44.764;37.688;2023-08-12T04:21:53;20.38;;;13.27;;
79023;SDS011;70306;44.764;37.688;2023-08-12T04:22:55;18.08;;;12.82;;
79023;SDS011;70306;44.764;37.688;2023-08-12T04:23:57;17.40;;;11.65;;
79023;SDS011;70306;44.764;37.688;2023-08-12T04:24:59;18.80;;;12.57;;
79023;SDS011;70306;44.764;37.688;2023-08-12T04:26:00;18.05;;;12.55;;
79023;SDS011;70306;44.764;37.688;2023-08-12T04:27:03;19.42;;;13.32;;
79023;SDS011;70306;44.764;37.688;2023-08-12T04:28:05;37.67;;;12.80;;
79023;SDS011;70306;44.764;37.688;2023-08-12T04:29:09;17.73;;;12.00;;
79023;SDS011;70306;44.764;37.688;2023-08-12T04:30:13;19.65;;;13.15;;
79023;SDS011;70306;44.764;37.688;2023-08-12T04:31:15;26.15;;;12.77;;
79023;SDS011;70306;44.764;37.688;2023-08-12T04:32:17;59.38;;;15.13;;
79023;SDS011;70306;44.764;37.688;2023-08-12T04:33:19;18.92;;;12.57;;
79023;SDS011;70306;44.764;37.688;2023-08-12T04:34:22;18.10;;;13.25;;
79023;SDS011;70306;44.764;37.688;2023-08-12T04:36:28;21.33;;;14.00;;
79023;SDS011;70306;44.764;37.688;2023-08-12T04:37:33;19.27;;;13.25;;
79023;SDS011;70306;44.764;37.688;2023-08-12T04:38:35;40.28;;;15.23;;
79023;SDS011;70306;44.764;37.688;2023-08-12T04:39:40;22.08;;;14.93;;
79023;SDS011;70306;44.764;37.688;2023-08-12T04:40:42;21.58;;;12.65;;
79023;SDS011;70306;44.764;37.688;2023-08-12T04:41:44;26.00;;;14.00;;
79023;SDS011;70306;44.764;37.688;2023-08-12T04:42:46;21.25;;;15.15;;
79023;SDS011;70306;44.764;37.688;2023-08-12T04:43:48;17.88;;;14.02;;
79023;SDS011;70306;44.764;37.688;2023-08-12T04:44:50;19.58;;;12.93;;
79023;SDS011;70306;44.764;37.688;2023-08-12T04:45:52;15.68;;;12.82;;
79023;SDS011;70306;44.764;37.688;2023-08-12T04:46:54;41.03;;;15.55;;
79023;SDS011;70306;44.764;37.688;2023-08-12T04:47:57;30.80;;;14.05;;
79023;SDS011;70306;44.764;37.688;2023-08-12T04:48:59;28.13;;;14.25;;
79023;SDS011;70306;44.764;37.688;2023-08-12T04:50:01;14.35;;;12.70;;
79023;SDS011;70306;44.764;37.688;2023-08-12T04:51:05;16.15;;;13.98;;
79023;SDS011;70306;44.764;37.688;2023-08-12T04:52:08;57.33;;;18.33;;
79023;SDS011;70306;44.764;37.688;2023-08-12T04:53:11;19.15;;;12.98;;
79023;SDS011;70306;44.764;37.688;2023-08-12T04:54:12;15.57;;;13.18;;
79023;SDS011;70306;44.764;37.688;2023-08-12T04:55:14;21.90;;;13.27;;
79023;SDS011;70306;44.764;37.688;2023-08-12T04:56:18;15.77;;;12.65;;
79023;SDS011;70306;44.764;37.688;2023-08-12T04:57:20;30.98;;;14.27;;
79023;SDS011;70306;44.764;37.688;2023-08-12T04:58:22;22.85;;;13.00;;
79023;SDS011;70306;44.764;37.688;2023-08-12T04:59:25;24.52;;;15.15;;
79023;SDS011;70306;44.764;37.688;2023-08-12T05:00:27;21.02;;;14.02;;
79023;SDS011;70306;44.764;37.688;2023-08-12T05:01:29;53.08;;;16.20;;
79023;SDS011;70306;44.764;37.688;2023-08-12T05:02:31;25.20;;;13.38;;
79023;SDS011;70306;44.764;37.688;2023-08-12T05:03:32;22.48;;;13.15;;
79023;SDS011;70306;44.764;37.688;2023-08-12T05:04:34;41.35;;;14.57;;
79023;SDS011;70306;44.764;37.688;2023-08-12T05:05:36;26.23;;;13.23;;
79023;SDS011;70306;44.764;37.688;2023-08-12T05:06:38;83.75;;;19.08;;
79023;SDS011;70306;44.764;37.688;2023-08-12T05:07:40;26.92;;;11.98;;
79023;SDS011;70306;44.764;37.688;2023-08-12T05:08:41;15.23;;;12.45;;
79023;SDS011;70306;44.764;37.688;2023-08-12T05:09:43;20.13;;;11.55;;
79023;SDS011;70306;44.764;37.688;2023-08-12T05:10:47;14.73;;;11.30;;
79023;SDS011;70306;44.764;37.688;2023-08-12T05:11:49;17.25;;;11.27;;
79023;SDS011;70306;44.764;37.688;2023-08-12T05:12:52;18.90;;;11.85;;
79023;SDS011;70306;44.764;37.688;2023-08-12T05:13:55;15.80;;;12.00;;
79023;SDS011;70306;44.764;37.688;2023-08-12T05:14:57;17.05;;;11.75;;
79023;SDS011;70306;44.764;37.688;2023-08-12T05:15:59;17.30;;;11.65;;
79023;SDS011;70306;44.764;37.688;2023-08-12T05:17:00;15.55;;;12.10;;
79023;SDS011;70306;44.764;37.688;2023-08-12T05:18:02;18.05;;;12.63;;
79023;SDS011;70306;44.764;37.688;2023-08-12T05:19:04;12.07;;;10.88;;
79023;SDS011;70306;44.764;37.688;2023-08-12T05:20:06;20.40;;;11.57;;
79023;SDS011;70306;44.764;37.688;2023-08-12T05:21:09;15.23;;;11.10;;
79023;SDS011;70306;44.764;37.688;2023-08-12T05:22:11;32.08;;;13.00;;
79023;SDS011;70306;44.764;37.688;2023-08-12T05:23:12;30.52;;;11.98;;
79023;SDS011;70306;44.764;37.688;2023-08-12T05:24:14;22.90;;;10.73;;
79023;SDS011;70306;44.764;37.688;2023-08-12T05:25:17;25.20;;;11.15;;
79023;SDS011;70306;44.764;37.688;2023-08-12T05:26:19;27.00;;;11.00;;
79023;SDS011;70306;44.764;37.688;2023-08-12T05:27:21;13.32;;;9.43;;
79023;SDS011;70306;44.764;37.688;2023-08-12T05:28:23;15.85;;;10.32;;
79023;SDS011;70306;44.764;37.688;2023-08-12T05:29:25;20.10;;;10.80;;
79023;SDS011;70306;44.764;37.688;2023-08-12T05:30:26;20.55;;;11.45;;
79023;SDS011;70306;44.764;37.688;2023-08-12T05:31:29;52.30;;;14.55;;
79023;SDS011;70306;44.764;37.688;2023-08-12T05:32:30;19.85;;;11.40;;
79023;SDS011;70306;44.764;37.688;2023-08-12T05:33:32;34.67;;;14.77;;
79023;SDS011;70306;44.764;37.688;2023-08-12T05:34:37;21.08;;;10.25;;
79023;SDS011;70306;44.764;37.688;2023-08-12T05:35:38;129.93;;;19.65;;
79023;SDS011;70306;44.764;37.688;2023-08-12T05:36:40;38.40;;;12.52;;
79023;SDS011;70306;44.764;37.688;2023-08-12T05:37:42;32.28;;;12.10;;
79023;SDS011;70306;44.764;37.688;2023-08-12T05:38:43;209.75;;;26.38;;
79023;SDS011;70306;44.764;37.688;2023-08-12T05:39:45;16.23;;;9.63;;
79023;SDS011;70306;44.764;37.688;2023-08-12T05:40:47;20.80;;;11.98;;
79023;SDS011;70306;44.764;37.688;2023-08-12T05:41:48;24.88;;;11.00;;
79023;SDS011;70306;44.764;37.688;2023-08-12T05:42:50;20.23;;;11.73;;
79023;SDS011;70306;44.764;37.688;2023-08-12T05:43:52;45.35;;;12.05;;
79023;SDS011;70306;44.764;37.688;2023-08-12T05:44:53;104.70;;;16.98;;
79023;SDS011;70306;44.764;37.688;2023-08-12T05:45:55;17.48;;;10.32;;
79023;SDS011;70306;44.764;37.688;2023-08-12T05:46:57;33.53;;;10.13;;
79023;SDS011;70306;44.764;37.688;2023-08-12T05:48:01;45.88;;;12.65;;
79023;SDS011;70306;44.764;37.688;2023-08-12T05:49:03;55.17;;;13.23;;
79023;SDS011;70306;44.764;37.688;2023-08-12T05:50:05;37.72;;;12.50;;
79023;SDS011;70306;44.764;37.688;2023-08-12T05:51:07;11.15;;;8.82;;
79023;SDS011;70306;44.764;37.688;2023-08-12T05:52:09;18.98;;;9.18;;
79023;SDS011;70306;44.764;37.688;2023-08-12T05:53:11;52.25;;;15.27;;
79023;SDS011;70306;44.764;37.688;2023-08-12T05:54:12;12.55;;;9.63;;
79023;SDS011;70306;44.764;37.688;2023-08-12T05:55:14;13.55;;;9.13;;
79023;SDS011;70306;44.764;37.688;2023-08-12T05:56:16;45.17;;;13.18;;
79023;SDS011;70306;44.764;37.688;2023-08-12T05:57:21;16.85;;;9.45;;
79023;SDS011;70306;44.764;37.688;2023-08-12T05:58:22;12.88;;;9.15;;
79023;SDS011;70306;44.764;37.688;2023-08-12T05:59:24;13.93;;;11.23;;
79023;SDS011;70306;44.764;37.688;2023-08-12T06:00:26;17.83;;;12.18;;
79023;SDS011;70306;44.764;37.688;2023-08-12T06:01:27;21.08;;;17.50;;
79023;SDS011;70306;44.764;37.688;2023-08-12T06:02:29;75.15;;;17.50;;
79023;SDS011;70306;44.764;37.688;2023-08-12T06:03:31;18.27;;;10.43;;
79023;SDS011;70306;44.764;37.688;2023-08-12T06:04:32;54.22;;;13.23;;
79023;SDS011;70306;44.764;37.688;2023-08-12T06:05:34;18.60;;;10.32;;
79023;SDS011;70306;44.764;37.688;2023-08-12T06:06:36;34.10;;;12.27;;
79023;SDS011;70306;44.764;37.688;2023-08-12T06:07:37;17.85;;;14.48;;
79023;SDS011;70306;44.764;37.688;2023-08-12T06:08:39;25.40;;;9.50;;